Impacts METAR Board
IDs:

KDFW - Dallas-Ft Worth Intl, TX, US

Updated at: 2200 UTC 18 Nov 2018
Potential Impact None Slight Moderate High
Time 18/10Z 18/11Z 18/12Z 18/13Z 18/14Z 18/15Z 18/16Z 18/17Z 18/18Z 18/19Z 18/20Z 18/21Z 18/22Z
Temp44 43 42 41 40 40 40 40 41 41 42 42 42
Dewpt36 35 35 35 35 34 33 32 32 32 32 31 31
Altim30.19 30.21 30.24 30.26 30.27 30.29 30.31 30.32 30.30 30.27 30.26 30.24 30.23
VIS8 8 8 10 9 10 10 10 10 10 10 10 10
CIG18 18 14 13 11 12 12 15 19 19 20 21 22
CoverOVCOVCOVCOVCOVCOVCOVCOVCOVCOVCOVCOVCOVC
FltCatMVFRMVFRMVFRMVFRMVFRMVFRMVFRMVFRMVFRMVFRMVFRMVFRMVFR
WX--------------------------
WDir320330320320330330340320330310340350330
WSpd15 17 14 17 13 14 14 14 14 13 12 12 10
WGst-- -- -- -- -- -- -- -- -- -- -- -- --
Raw hourly METARs
KDFW 180953Z 32015KT 8SM BKN018 OVC025 07/02 A3019 RMK AO2 SLP219 T00670022 $
KDFW 181053Z 33017KT 8SM OVC018 06/02 A3021 RMK AO2 SLP229 T00610017 $
KDFW 181153Z 32014KT 8SM OVC014 06/02 A3024 RMK AO2 SLP239 T00560017 10161 20056 53025 $
KDFW 181253Z 32017KT 10SM OVC013 05/02 A3026 RMK AO2 SLP245 T00500017 $
KDFW 181353Z 33013KT 9SM OVC011 04/02 A3027 RMK AO2 SLP250 T00440017 $
KDFW 181453Z 33014KT 10SM OVC012 04/01 A3029 RMK AO2 SLP257 T00440011 53017 $
KDFW 181553Z 34014KT 10SM OVC012 04/01 A3031 RMK AO2 SLP264 T00440006 $
KDFW 181653Z 32014KT 10SM OVC015 04/00 A3032 RMK AO2 SLP266 T00440000 $
KDFW 181753Z 33014KT 10SM OVC019 05/00 A3030 RMK AO2 SLP259 T00500000 10056 20039 50002 $
KDFW 181853Z 31013KT 10SM OVC019 05/00 A3027 RMK AO2 SLP250 T00500000 $
KDFW 181953Z 34012KT 10SM OVC020 06/00 A3026 RMK AO2 SLP245 T00560000 $
KDFW 182053Z 35012KT 10SM OVC021 06/M01 A3024 RMK AO2 SLP240 T00561006 56019 $
KDFW 182153Z 33010KT 10SM OVC022 06/M01 A3023 RMK AO2 SLP237 T00561006 $



Page loaded:  22:41 UTC  |   02:41 PM Pacific  |   03:41 PM Mountain  |   04:41 PM Central  |   05:41 PM Eastern

 

ADVISORIES

FORECASTS

FORECASTS

OBSERVATIONS

USER TOOLS

ABOUT US